Time;durP1;ratioP1;P1;durP2;ratioP2;P2;SDS_P1;SDS_P2;PMS_P1;PMS_P2;Temp;Humidity;BMP_temperature;BMP_pressure;BME280_temperature;BME280_humidity;BME280_pressure;Samples;Min_cycle;Max_cycle;Signal;HPM_P1;HPM_P2
2022/01/05 00:01:51;;;;;;;18.82;11.80;;;;;;;6.25;80.99;96483.67;1745341;82;21075;-73
2022/01/05 00:04:17;;;;;;;16.73;10.75;;;;;;;6.23;80.95;96476.30;1735273;82;21403;-72
2022/01/05 00:06:43;;;;;;;19.00;11.18;;;;;;;6.19;80.88;96477.72;1748950;82;20961;-73
2022/01/05 00:09:10;;;;;;;18.85;11.05;;;;;;;6.17;80.88;96469.48;1751791;82;21047;-73
2022/01/05 00:11:36;;;;;;;18.30;11.25;;;;;;;6.13;80.78;96463.93;1749719;82;21489;-73
2022/01/05 00:14:03;;;;;;;19.23;11.28;;;;;;;6.07;80.61;96478.19;1725598;82;20984;-73
2022/01/05 00:16:29;;;;;;;22.20;11.55;;;;;;;6.01;80.55;96474.41;1725121;83;21029;-74
2022/01/05 00:18:55;;;;;;;16.82;10.70;;;;;;;5.98;80.63;96473.22;1724854;83;21016;-74
2022/01/05 00:21:22;;;;;;;21.48;12.55;;;;;;;5.92;80.46;96476.47;1725028;83;20997;-74
2022/01/05 00:23:48;;;;;;;16.70;11.73;;;;;;;5.83;81.63;96477.23;1743039;82;21423;-74
2022/01/05 00:26:15;;;;;;;20.60;12.90;;;;;;;5.76;80.93;96476.14;1754867;82;20969;-73
2022/01/05 00:28:41;;;;;;;23.55;12.75;;;;;;;5.71;81.65;96483.33;1754931;82;20989;-74
2022/01/05 00:31:08;;;;;;;21.37;12.85;;;;;;;5.71;81.37;96475.89;1749349;82;20969;-73
2022/01/05 00:33:34;;;;;;;20.80;12.13;;;;;;;5.65;81.09;96485.70;1729369;80;20956;-74
2022/01/05 00:36:00;;;;;;;19.62;13.10;;;;;;;5.59;82.07;96486.36;1742799;82;21400;-74
2022/01/05 00:38:27;;;;;;;24.25;13.88;;;;;;;5.55;81.52;96486.48;1742622;82;21043;-74
2022/01/05 00:40:53;;;;;;;22.87;14.25;;;;;;;5.56;81.39;96482.07;1742733;82;20995;-74
2022/01/05 00:43:20;;;;;;;23.30;13.08;;;;;;;5.56;83.18;96491.27;1754869;82;21454;-74
2022/01/05 00:45:46;;;;;;;21.35;13.75;;;;;;;5.53;82.26;96490.08;1755030;82;21035;-73
2022/01/05 00:48:12;;;;;;;20.48;14.10;;;;;;;5.52;82.06;96493.15;1734271;82;21020;-74
2022/01/05 00:50:39;;;;;;;20.90;13.90;;;;;;;5.53;82.42;96479.09;1725043;83;21465;-74
2022/01/05 00:53:05;;;;;;;19.27;12.70;;;;;;;5.53;82.31;96489.61;1753777;82;21020;-74
2022/01/05 00:55:32;;;;;;;20.88;14.15;;;;;;;5.55;82.22;96487.80;1745255;81;21065;-74
2022/01/05 00:57:58;;;;;;;21.93;13.50;;;;;;;5.58;82.29;96480.27;1740949;82;20986;-74
2022/01/05 01:00:24;;;;;;;21.68;12.95;;;;;;;5.60;82.34;96473.66;1740945;82;21293;-74
2022/01/05 01:02:51;;;;;;;24.00;14.80;;;;;;;5.56;82.21;96467.62;1695666;83;21013;-74
2022/01/05 01:05:18;;;;;;;22.00;14.07;;;;;;;5.55;82.28;96466.78;1711611;83;20970;-74
2022/01/05 01:07:45;;;;;;;19.17;12.40;;;;;;;5.54;82.17;96465.52;1711284;84;21483;-74
2022/01/05 01:10:12;;;;;;;21.97;11.53;;;;;;;5.53;81.87;96475.62;1711386;83;21048;-74
2022/01/05 01:12:39;;;;;;;21.25;12.13;;;;;;;5.49;81.92;96468.28;1733117;82;21009;-74
2022/01/05 01:15:11;;;;;;;22.65;12.70;;;;;;;5.44;81.94;96469.37;1740843;82;20957;-74
2022/01/05 01:17:38;;;;;;;17.45;11.18;;;;;;;5.38;81.88;96458.16;1740788;82;21040;-74
2022/01/05 01:20:07;;;;;;;19.45;12.37;;;;;;;5.35;82.03;96468.75;1740929;82;21395;-74
2022/01/05 01:22:35;;;;;;;21.42;12.07;;;;;;;5.28;81.98;96473.82;1720307;82;20985;-74
2022/01/05 01:25:03;;;;;;;19.92;12.00;;;;;;;5.24;82.29;96483.55;1711424;84;21051;-74
2022/01/05 01:27:30;;;;;;;19.80;10.85;;;;;;;5.20;81.96;96479.77;1691176;84;21005;-74
2022/01/05 01:29:56;;;;;;;18.75;11.53;;;;;;;5.12;82.04;96483.96;1711314;84;21039;-74
2022/01/05 01:32:23;;;;;;;21.65;13.25;;;;;;;5.06;82.60;96473.66;1729428;82;21427;-74
2022/01/05 01:34:49;;;;;;;18.25;11.33;;;;;;;5.00;83.05;96481.27;1734461;81;20987;-74
2022/01/05 01:37:16;;;;;;;17.23;11.50;;;;;;;4.97;82.64;96465.60;1726173;83;21042;-74
2022/01/05 01:39:43;;;;;;;23.60;12.68;;;;;;;4.88;84.15;96470.70;1728470;82;21005;-74
2022/01/05 01:42:09;;;;;;;21.65;12.60;;;;;;;4.81;83.18;96471.34;1738678;82;20996;-74
2022/01/05 01:44:36;;;;;;;22.15;12.10;;;;;;;4.78;83.00;96475.83;1740800;82;20982;-74
2022/01/05 01:47:03;;;;;;;18.70;12.10;;;;;;;4.73;83.06;96483.39;1740873;82;20993;-74
2022/01/05 01:49:30;;;;;;;22.65;12.55;;;;;;;4.71;83.65;96476.47;1737951;82;21060;-74
2022/01/05 01:51:57;;;;;;;16.23;10.15;;;;;;;4.69;83.00;96483.55;1691224;84;21701;-74
2022/01/05 01:54:23;;;;;;;19.10;10.82;;;;;;;4.62;83.01;96471.90;1711190;83;21014;-74
2022/01/05 01:56:52;;;;;;;20.52;11.70;;;;;;;4.56;84.21;96464.66;1690813;84;21048;-74
2022/01/05 01:59:18;;;;;;;20.57;12.43;;;;;;;4.49;83.79;96475.34;1711497;82;20978;-74
2022/01/05 02:01:45;;;;;;;19.60;12.55;;;;;;;4.43;84.01;96473.36;1711477;84;21056;-74
2022/01/05 02:04:11;;;;;;;17.50;10.88;;;;;;;4.40;83.67;96471.69;1711314;84;21037;-74
2022/01/05 02:06:38;;;;;;;25.57;12.33;;;;;;;4.41;85.97;96475.18;1711537;84;21077;-74
2022/01/05 02:09:05;;;;;;;18.67;10.45;;;;;;;4.41;84.33;96456.37;1711509;84;21081;-74
2022/01/05 02:11:34;;;;;;;16.60;9.03;;;;;;;4.37;83.99;96466.55;1712023;82;20985;-74
2022/01/05 02:14:00;;;;;;;16.65;10.30;;;;;;;4.33;84.04;96472.31;1711254;84;21075;-74
2022/01/05 02:16:31;;;;;;;17.73;11.45;;;;;;;4.32;83.95;96481.09;1719185;82;20961;-74
2022/01/05 02:18:58;;;;;;;19.67;10.53;;;;;;;4.32;84.33;96488.96;1732685;82;21464;-74
2022/01/05 02:21:28;;;;;;;17.98;11.15;;;;;;;4.33;84.20;96486.73;1714193;82;20989;-74
2022/01/05 02:23:55;;;;;;;16.45;10.43;;;;;;;4.32;84.28;96485.02;1710879;83;21084;-74
2022/01/05 02:26:21;;;;;;;17.12;10.82;;;;;;;4.34;84.43;96492.86;1711268;84;21462;-74
2022/01/05 02:28:48;;;;;;;15.72;9.50;;;;;;;4.39;84.92;96490.95;1736787;82;20994;-73
2022/01/05 02:31:15;;;;;;;14.78;9.10;;;;;;;4.46;84.82;96484.64;1740926;82;21021;-74
2022/01/05 02:33:42;;;;;;;15.45;9.58;;;;;;;4.54;84.96;96485.73;1740325;81;21455;-74
2022/01/05 02:36:12;;;;;;;18.35;9.78;;;;;;;4.60;85.10;96474.16;1731088;82;21050;-74
2022/01/05 02:38:37;;;;;;;15.28;9.50;;;;;;;4.65;85.42;96472.73;1710937;84;21498;-75
2022/01/05 02:41:10;;;;;;;16.77;9.88;;;;;;;4.70;85.40;96469.52;1711260;84;21057;-74
2022/01/05 02:43:39;;;;;;;16.12;9.40;;;;;;;4.75;85.38;96470.23;1711241;84;21719;-75
2022/01/05 02:46:13;;;;;;;15.15;9.28;;;;;;;4.80;85.51;96464.37;1723412;82;21017;-75
2022/01/05 02:48:40;;;;;;;;;;;;;;;4.89;85.66;96459.28;1742934;82;21065;-75
2022/01/05 02:51:07;;;;;;;14.80;8.95;;;;;;;4.91;85.41;96464.49;1740740;82;20372;-74
2022/01/05 02:53:35;;;;;;;14.33;9.30;;;;;;;4.93;85.64;96454.78;1740727;82;21466;-74
2022/01/05 02:56:02;;;;;;;16.62;8.55;;;;;;;4.95;85.86;96464.36;1744693;81;21025;-74
2022/01/05 02:58:28;;;;;;;13.05;7.58;;;;;;;4.96;86.27;96470.02;1724750;83;21016;-74
2022/01/05 03:00:55;;;;;;;12.43;7.15;;;;;;;5.01;85.96;96469.85;1725051;83;21051;-74
2022/01/05 03:03:22;;;;;;;8.88;5.90;;;;;;;5.05;85.72;96467.54;1725015;83;20985;-75
2022/01/05 03:05:49;;;;;;;8.83;5.95;;;;;;;5.13;85.78;96469.91;1724979;83;20993;-74
2022/01/05 03:08:16;;;;;;;11.20;7.05;;;;;;;5.21;85.68;96469.22;1725170;83;21474;-74
2022/01/05 03:10:43;;;;;;;12.55;8.05;;;;;;;5.29;85.33;96459.77;1725085;83;21024;-73
2022/01/05 03:13:09;;;;;;;13.00;8.03;;;;;;;5.30;85.00;96462.80;1725063;83;21016;-74
2022/01/05 03:15:36;;;;;;;13.10;7.28;;;;;;;5.31;85.01;96464.50;1729841;82;21390;-74
2022/01/05 03:18:06;;;;;;;14.60;7.72;;;;;;;5.33;84.79;96467.95;1754995;81;21458;-74
2022/01/05 03:20:34;;;;;;;12.98;7.97;;;;;;;5.33;84.75;96462.70;1754906;81;21004;-74
2022/01/05 03:23:04;;;;;;;12.63;8.10;;;;;;;5.33;84.55;96469.71;1753092;82;21029;-74
2022/01/05 03:25:31;;;;;;;12.13;7.72;;;;;;;5.34;84.72;96462.23;1751458;82;21051;-74
2022/01/05 03:27:58;;;;;;;11.20;7.20;;;;;;;5.35;84.80;96466.60;1724858;83;21044;-74
2022/01/05 03:30:29;;;;;;;10.80;7.45;;;;;;;5.35;84.88;96468.75;1724905;83;21453;-74
2022/01/05 03:35:24;;;;;;;16.55;9.38;;;;;;;5.39;84.83;96468.19;1726381;80;21373;-74
2022/01/05 03:37:51;;;;;;;16.57;8.28;;;;;;;5.39;84.99;96467.75;1724939;83;21505;-74
2022/01/05 03:40:17;;;;;;;11.57;8.08;;;;;;;5.39;85.24;96473.44;1724939;83;21072;-74
2022/01/05 03:42:44;;;;;;;11.68;7.62;;;;;;;5.41;84.90;96471.17;1724884;83;21004;-74
2022/01/05 03:45:10;;;;;;;12.45;8.00;;;;;;;5.43;84.79;96461.92;1744421;82;21482;-74
2022/01/05 03:47:37;;;;;;;15.20;8.80;;;;;;;5.45;85.27;96461.88;1755106;82;21020;-74
2022/01/05 03:50:04;;;;;;;12.37;7.83;;;;;;;5.46;84.87;96463.14;1726298;82;21016;-74
2022/01/05 03:52:31;;;;;;;12.93;8.35;;;;;;;5.48;85.08;96462.63;1724973;83;20996;-74
2022/01/05 03:54:58;;;;;;;13.60;9.08;;;;;;;5.50;85.15;96463.45;1740015;81;21453;-74
2022/01/05 03:57:25;;;;;;;12.70;8.20;;;;;;;5.51;84.92;96462.98;1747196;81;21357;-74
2022/01/05 03:59:53;;;;;;;11.75;8.30;;;;;;;5.50;84.90;96458.20;1754389;81;20981;-74
2022/01/05 04:02:21;;;;;;;14.65;8.55;;;;;;;5.51;84.77;96457.28;1754805;82;20978;-74
2022/01/05 04:04:47;;;;;;;11.70;7.90;;;;;;;5.53;84.84;96460.70;1752204;81;21017;-74
2022/01/05 04:07:16;;;;;;;15.45;8.88;;;;;;;5.54;84.77;96468.14;1754917;82;21360;-74
2022/01/05 04:09:43;;;;;;;13.03;8.90;;;;;;;5.55;84.85;96476.42;1733757;82;21010;-74
2022/01/05 04:12:11;;;;;;;12.88;8.53;;;;;;;5.55;84.87;96472.48;1724975;83;21478;-74
2022/01/05 04:14:37;;;;;;;15.45;8.70;;;;;;;5.56;84.83;96470.25;1736491;82;21059;-74
2022/01/05 04:17:04;;;;;;;13.53;8.70;;;;;;;5.55;84.68;96467.22;1727970;81;20997;-74
2022/01/05 04:19:31;;;;;;;14.68;9.48;;;;;;;5.57;84.76;96468.05;1725040;83;21470;-74
2022/01/05 04:21:58;;;;;;;18.23;9.00;;;;;;;5.58;84.94;96476.33;1724936;83;21083;-74
2022/01/05 04:24:24;;;;;;;17.73;9.75;;;;;;;5.59;85.78;96467.97;1733287;82;21584;-74
2022/01/05 04:26:51;;;;;;;14.40;9.08;;;;;;;5.61;84.83;96467.48;1723825;82;21016;-74
2022/01/05 04:29:17;;;;;;;13.83;9.23;;;;;;;5.63;85.04;96473.53;1751689;82;21005;-74
2022/01/05 04:31:45;;;;;;;13.98;9.23;;;;;;;5.62;84.90;96470.06;1754934;82;21025;-74
2022/01/05 04:34:12;;;;;;;16.80;9.93;;;;;;;5.63;86.08;96473.53;1745771;80;20968;-74
2022/01/05 04:36:39;;;;;;;14.60;9.88;;;;;;;5.64;85.02;96474.80;1723503;83;21484;-74
2022/01/05 04:39:05;;;;;;;16.27;10.40;;;;;;;5.63;85.69;96473.08;1723307;83;21027;-74
2022/01/05 04:41:32;;;;;;;16.32;10.35;;;;;;;5.65;85.83;96481.76;1724367;83;20973;-73
2022/01/05 04:43:58;;;;;;;17.20;10.23;;;;;;;5.64;85.22;96474.80;1724670;82;20990;-74
2022/01/05 04:46:25;;;;;;;17.77;10.28;;;;;;;5.67;85.27;96473.83;1725020;83;21469;-74
2022/01/05 04:48:51;;;;;;;17.40;11.10;;;;;;;5.71;85.09;96469.31;1724998;83;21028;-74
2022/01/05 04:51:17;;;;;;;14.98;10.63;;;;;;;5.72;85.95;96470.58;1735348;82;21069;-74
2022/01/05 04:53:44;;;;;;;19.20;10.20;;;;;;;5.73;85.50;96472.30;1754887;82;21001;-73
2022/01/05 04:56:10;;;;;;;16.15;10.72;;;;;;;5.76;85.27;96470.89;1755002;82;21044;-74
2022/01/05 04:58:37;;;;;;;14.47;10.15;;;;;;;5.78;85.30;96478.25;1754860;81;21009;-74
2022/01/05 05:01:03;;;;;;;16.00;9.90;;;;;;;5.81;85.38;96470.70;1747257;82;21461;-75
2022/01/05 05:03:30;;;;;;;17.45;10.03;;;;;;;5.85;85.30;96475.42;1725080;83;20997;-75
2022/01/05 05:05:56;;;;;;;14.40;9.53;;;;;;;5.85;85.57;96482.84;1724928;83;21032;-74
2022/01/05 05:08:22;;;;;;;18.65;10.32;;;;;;;5.87;85.41;96484.11;1724997;83;21033;-75
2022/01/05 05:10:49;;;;;;;17.05;9.88;;;;;;;5.88;85.23;96485.81;1728460;82;21031;-74
2022/01/05 05:13:15;;;;;;;19.12;10.88;;;;;;;5.89;85.21;96472.63;1754835;81;21446;-74
2022/01/05 05:15:41;;;;;;;13.93;10.18;;;;;;;5.96;85.13;96470.64;1754828;82;20968;-74
2022/01/05 05:18:08;;;;;;;15.05;9.85;;;;;;;6.00;85.01;96468.30;1754856;82;20980;-74
2022/01/05 05:20:35;;;;;;;13.50;9.33;;;;;;;6.04;85.41;96474.34;1754368;82;21000;-74
2022/01/05 05:23:03;;;;;;;18.00;9.30;;;;;;;6.09;85.12;96464.50;1725030;83;21005;-74
2022/01/05 05:25:30;;;;;;;12.73;8.40;;;;;;;6.16;85.27;96474.34;1724970;83;21055;-74
2022/01/05 05:27:57;;;;;;;14.35;8.93;;;;;;;6.22;85.26;96466.23;1724846;83;21013;-74
2022/01/05 05:30:23;;;;;;;13.32;8.65;;;;;;;6.26;85.42;96479.67;1724647;83;21477;-74
2022/01/05 05:32:50;;;;;;;16.27;9.43;;;;;;;6.32;85.37;96470.23;1747137;82;20996;-74
2022/01/05 05:35:17;;;;;;;13.20;8.58;;;;;;;6.39;85.28;96479.23;1740847;80;21016;-74
2022/01/05 05:37:43;;;;;;;14.18;8.75;;;;;;;6.41;85.38;96469.05;1724846;83;20973;-74
2022/01/05 05:40:11;;;;;;;12.88;8.38;;;;;;;6.49;85.53;96479.73;1724950;83;21067;-74
2022/01/05 05:42:37;;;;;;;12.85;8.08;;;;;;;6.55;85.66;96480.36;1748054;82;21060;-74
2022/01/05 05:45:06;;;;;;;13.58;9.18;;;;;;;6.62;85.68;96473.09;1724970;83;21044;-74
2022/01/05 05:47:33;;;;;;;14.95;9.20;;;;;;;6.68;85.05;96468.06;1724986;83;21040;-74
2022/01/05 05:50:00;;;;;;;14.68;9.68;;;;;;;6.71;85.35;96458.27;1731164;82;21032;-74
2022/01/05 05:52:26;;;;;;;14.35;9.55;;;;;;;6.76;85.31;96458.06;1743508;82;21060;-74
2022/01/05 05:54:53;;;;;;;14.98;10.13;;;;;;;6.77;85.26;96460.25;1753573;82;21518;-74
2022/01/05 05:57:19;;;;;;;18.15;9.43;;;;;;;6.79;85.15;96456.64;1753883;82;20977;-74
2022/01/05 05:59:46;;;;;;;15.03;9.23;;;;;;;6.76;84.84;96459.38;1754562;81;21055;-74
2022/01/05 06:02:12;;;;;;;15.53;9.83;;;;;;;6.72;84.90;96473.14;1737835;82;21048;-74
2022/01/05 06:04:39;;;;;;;15.85;9.98;;;;;;;6.71;84.87;96478.01;1753551;81;21335;-74
2022/01/05 06:07:05;;;;;;;14.15;9.75;;;;;;;6.72;85.04;96478.41;1754799;82;21036;-74
2022/01/05 06:09:32;;;;;;;14.03;9.05;;;;;;;6.74;84.86;96475.72;1754418;81;21010;-74
2022/01/05 06:11:58;;;;;;;14.65;9.20;;;;;;;6.74;84.80;96478.34;1738302;81;21068;-74
2022/01/05 06:14:25;;;;;;;15.50;9.65;;;;;;;6.71;84.68;96481.09;1724871;83;21016;-74
2022/01/05 06:16:51;;;;;;;13.78;10.10;;;;;;;6.70;84.66;96475.43;1724185;83;21422;-74
2022/01/05 06:19:18;;;;;;;15.23;10.10;;;;;;;6.65;85.12;96480.88;1725016;83;20996;-74
2022/01/05 06:21:45;;;;;;;15.72;9.58;;;;;;;6.63;84.67;96472.17;1736873;82;20993;-74
2022/01/05 06:24:12;;;;;;;16.77;10.38;;;;;;;6.59;84.73;96474.07;1754768;82;20992;-74
2022/01/05 06:26:39;;;;;;;18.02;10.15;;;;;;;6.57;84.68;96472.41;1754845;82;21040;-74
2022/01/05 06:29:05;;;;;;;14.18;10.08;;;;;;;6.55;84.75;96476.86;1735654;82;20968;-74
2022/01/05 06:31:32;;;;;;;18.17;10.23;;;;;;;6.53;84.66;96472.13;1733073;82;21434;-74
2022/01/05 06:33:58;;;;;;;15.75;9.98;;;;;;;6.50;85.09;96478.36;1755743;80;20973;-73
2022/01/05 06:36:25;;;;;;;18.73;10.15;;;;;;;6.49;84.93;96477.09;1753342;82;21529;-74
2022/01/05 06:38:52;;;;;;;16.00;9.70;;;;;;;6.46;84.86;96480.26;1753217;82;21012;-74
2022/01/05 06:41:18;;;;;;;13.75;9.10;;;;;;;6.43;84.68;96475.55;1752729;82;21458;-74
2022/01/05 06:43:44;;;;;;;16.12;9.90;;;;;;;6.40;85.28;96471.26;1745055;81;21028;-74
2022/01/05 06:46:11;;;;;;;12.40;8.90;;;;;;;6.38;85.03;96473.09;1724840;83;21024;-75
2022/01/05 06:48:37;;;;;;;13.83;9.60;;;;;;;6.37;85.02;96471.84;1724963;83;21000;-75
2022/01/05 06:51:04;;;;;;;13.98;10.20;;;;;;;6.35;85.55;96482.41;1727064;82;21020;-75
2022/01/05 06:53:30;;;;;;;15.40;11.08;;;;;;;6.35;85.31;96478.47;1755236;82;21001;-74
2022/01/05 06:55:57;;;;;;;18.23;11.40;;;;;;;6.36;85.11;96480.20;1754862;82;21068;-74
2022/01/05 06:58:23;;;;;;;18.90;11.80;;;;;;;6.36;85.27;96487.23;1754908;82;21037;-74
2022/01/05 07:00:50;;;;;;;19.62;10.78;;;;;;;6.32;87.26;96489.13;1734991;81;21004;-74
2022/01/05 07:03:16;;;;;;;19.27;11.73;;;;;;;6.35;86.28;96479.78;1733193;82;20997;-74
2022/01/05 07:05:43;;;;;;;20.20;11.30;;;;;;;6.33;85.78;96465.39;1724898;83;20976;-74
2022/01/05 07:08:09;;;;;;;20.92;11.05;;;;;;;6.29;85.83;96474.75;1725031;83;21016;-74
2022/01/05 07:10:36;;;;;;;27.67;16.52;;;;;;;6.26;85.66;96474.41;1687089;85;21051;-74
2022/01/05 07:13:02;;;;;;;20.68;12.90;;;;;;;6.23;85.91;96482.88;1728965;82;21037;-74
2022/01/05 07:15:29;;;;;;;19.85;12.07;;;;;;;6.19;87.56;96491.35;1725016;83;20957;-75
2022/01/05 07:17:55;;;;;;;19.57;12.25;;;;;;;6.18;86.06;96482.59;1724925;83;21052;-74
2022/01/05 07:20:22;;;;;;;22.32;12.40;;;;;;;6.19;86.17;96480.83;1687028;85;20992;-74
2022/01/05 07:22:48;;;;;;;18.50;11.57;;;;;;;6.19;86.24;96480.35;1726622;82;21434;-74
2022/01/05 07:25:15;;;;;;;20.88;12.53;;;;;;;6.23;86.65;96490.77;1749908;82;21051;-74
2022/01/05 07:27:42;;;;;;;20.45;13.05;;;;;;;6.27;86.56;96481.86;1685717;85;21408;-73
2022/01/05 07:30:11;;;;;;;20.40;11.80;;;;;;;6.31;86.58;96479.52;1747041;82;21462;-73
2022/01/05 07:32:39;;;;;;;22.20;13.10;;;;;;;6.36;86.30;96488.55;1748559;82;20985;-74
2022/01/05 07:35:08;;;;;;;19.52;12.95;;;;;;;6.41;86.20;96475.62;1754776;82;21387;-73
2022/01/05 07:37:34;;;;;;;20.45;12.68;;;;;;;6.45;86.48;96474.57;1754637;82;21441;-73
2022/01/05 07:40:03;;;;;;;24.85;13.60;;;;;;;6.49;86.26;96477.09;1753836;82;20981;-73
2022/01/05 07:42:33;;;;;;;23.07;13.25;;;;;;;6.51;87.39;96475.28;1754719;82;21043;-73
2022/01/05 07:44:57;;;;;;;22.85;14.30;;;;;;;6.53;87.14;96473.44;1725330;82;21414;-74
2022/01/05 07:47:24;;;;;;;21.30;14.18;;;;;;;6.53;86.75;96482.20;1724946;82;20954;-73
2022/01/05 07:49:50;;;;;;;24.43;14.07;;;;;;;6.56;86.56;96471.55;1729940;82;21125;-74
2022/01/05 07:52:17;;;;;;;22.50;14.58;;;;;;;6.58;86.52;96466.23;1750946;82;20953;-74
2022/01/05 07:54:43;;;;;;;29.15;17.45;;;;;;;6.58;86.45;96474.99;1674462;85;21051;-74
2022/01/05 07:57:10;;;;;;;28.05;16.23;;;;;;;6.57;87.48;96481.63;1738529;82;21539;-73
2022/01/05 07:59:36;;;;;;;28.32;17.17;;;;;;;6.57;86.56;96473.73;1739970;81;21016;-73
2022/01/05 08:02:03;;;;;;;27.82;17.27;;;;;;;6.55;86.69;96480.81;1737820;82;21438;-73
2022/01/05 08:04:29;;;;;;;30.48;18.32;;;;;;;6.51;86.57;96482.70;1746960;82;21513;-73
2022/01/05 08:06:56;;;;;;;29.30;17.90;;;;;;;6.47;86.51;96484.60;1724908;83;21072;-74
2022/01/05 08:09:22;;;;;;;26.82;17.50;;;;;;;6.45;86.56;96482.95;1724913;83;21023;-73
2022/01/05 08:11:49;;;;;;;26.40;18.20;;;;;;;6.46;87.44;96484.20;1687066;85;21027;-73
2022/01/05 08:14:15;;;;;;;31.30;21.17;;;;;;;6.57;87.51;96490.36;1724990;83;21493;-73
2022/01/05 08:16:42;;;;;;;29.50;20.08;;;;;;;6.73;87.29;96484.53;1724700;83;21036;-74
2022/01/05 08:19:08;;;;;;;33.13;19.85;;;;;;;6.89;87.14;96484.77;1751708;82;21434;-74
2022/01/05 08:21:35;;;;;;;31.77;19.07;;;;;;;7.06;86.76;96478.00;1754753;82;21025;-73
2022/01/05 08:24:01;;;;;;;31.60;19.00;;;;;;;7.29;86.71;96476.19;1754432;82;21013;-74
2022/01/05 08:26:28;;;;;;;33.23;20.08;;;;;;;7.50;86.64;96475.32;1739528;82;21012;-74
2022/01/05 08:28:55;;;;;;;29.87;18.55;;;;;;;7.69;86.31;96475.88;1726848;82;21422;-75
2022/01/05 08:31:21;;;;;;;29.60;19.57;;;;;;;7.85;86.23;96476.53;1734576;82;20989;-74
2022/01/05 08:33:48;;;;;;;30.75;18.92;;;;;;;7.99;86.17;96462.73;1754895;82;21040;-74
2022/01/05 08:36:15;;;;;;;27.80;16.65;;;;;;;8.13;85.42;96466.93;1753839;82;21017;-75
2022/01/05 08:38:42;;;;;;;28.00;16.48;;;;;;;8.30;85.51;96470.59;1754621;82;21044;-74
2022/01/05 08:41:08;;;;;;;27.00;17.20;;;;;;;8.45;85.17;96473.88;1751995;82;21537;-74
2022/01/05 08:43:35;;;;;;;30.62;16.67;;;;;;;8.57;83.03;96470.30;1736994;80;20969;-75
2022/01/05 08:46:02;;;;;;;27.42;16.37;;;;;;;8.70;84.64;96467.49;1674173;85;21381;-75
2022/01/05 08:48:29;;;;;;;27.50;16.48;;;;;;;8.81;84.63;96460.36;1683008;85;21007;-74
2022/01/05 08:50:56;;;;;;;23.57;15.75;;;;;;;8.93;83.61;96467.33;1724411;83;21072;-74
2022/01/05 08:53:24;;;;;;;25.90;17.17;;;;;;;9.06;83.59;96463.16;1680776;84;21036;-74
2022/01/05 08:55:51;;;;;;;24.10;17.02;;;;;;;9.20;83.04;96462.50;1740147;82;21056;-73
2022/01/05 08:58:20;;;;;;;25.90;17.48;;;;;;;9.32;82.74;96460.17;1738912;82;20984;-73
2022/01/05 09:00:48;;;;;;;23.27;17.05;;;;;;;9.43;82.60;96453.05;1730701;82;21001;-73
2022/01/05 09:03:17;;;;;;;27.65;18.52;;;;;;;9.55;81.42;96455.55;1736565;82;21018;-74
2022/01/05 09:05:45;;;;;;;28.55;16.97;;;;;;;9.60;81.48;96445.09;1727654;82;21367;-74
2022/01/05 09:08:13;;;;;;;26.95;17.70;;;;;;;9.69;78.72;96443.80;1663410;85;21497;-74
2022/01/05 09:10:40;;;;;;;27.55;16.42;;;;;;;9.80;79.66;96439.25;1654518;85;22163;-74
2022/01/05 09:13:12;;;;;;;35.50;18.48;;;;;;;9.88;79.10;96437.08;1668824;85;21049;-73
2022/01/05 09:15:37;;;;;;;31.15;19.52;;;;;;;9.95;78.43;96427.03;1660493;85;21036;-73
2022/01/05 09:18:03;;;;;;;25.65;17.62;;;;;;;10.01;78.55;96425.86;1664948;86;21037;-73
2022/01/05 09:20:30;;;;;;;32.88;18.75;;;;;;;10.06;78.23;96426.94;1681688;84;21489;-74
2022/01/05 09:22:56;;;;;;;32.80;19.40;;;;;;;10.09;77.50;96424.13;1704391;84;21048;-73
2022/01/05 09:25:24;;;;;;;29.07;18.35;;;;;;;10.17;78.59;96425.88;1724019;82;21058;-72
2022/01/05 09:27:52;;;;;;;28.62;19.37;;;;;;;10.22;76.92;96424.33;1661678;85;21067;-72
2022/01/05 09:30:19;;;;;;;32.35;19.75;;;;;;;10.26;77.66;96421.91;1674450;83;20987;-73
2022/01/05 09:32:47;;;;;;;33.67;20.55;;;;;;;10.29;73.98;96424.38;1684831;84;21036;-73
2022/01/05 09:35:16;;;;;;;27.52;19.42;;;;;;;10.31;76.38;96410.60;1719216;82;20965;-73
2022/01/05 09:37:53;;;;;;;30.82;19.30;;;;;;;10.33;74.06;96418.47;1726701;82;21060;-72
2022/01/05 09:43:07;;;;;;;30.97;17.55;;;;;;;10.40;73.82;96409.23;1740820;82;20977;-73
2022/01/05 09:45:38;;;;;;;26.27;17.27;;;;;;;10.42;75.12;96404.24;1738164;81;21399;-73
2022/01/05 09:48:38;;;;;;;29.12;17.35;;;;;;;10.44;75.54;96406.84;1739938;82;20997;-73
2022/01/05 09:51:12;;;;;;;24.87;17.23;;;;;;;10.44;75.79;96409.49;1724056;82;21446;-74
2022/01/05 09:53:39;;;;;;;34.30;18.55;;;;;;;10.43;75.82;96407.76;1740869;82;21466;-74
2022/01/05 09:56:06;;;;;;;27.87;17.80;;;;;;;10.43;74.96;96411.27;1740721;82;20969;-74
2022/01/05 09:58:35;;;;;;;29.98;16.95;;;;;;;10.43;75.45;96408.63;1736382;82;20962;-73
2022/01/05 10:01:04;;;;;;;26.33;16.57;;;;;;;10.43;74.55;96399.36;1739059;81;21431;-74
2022/01/05 10:03:31;;;;;;;28.87;15.13;;;;;;;10.42;74.88;96400.27;1733430;82;20997;-73
2022/01/05 10:06:00;;;;;;;26.25;15.90;;;;;;;10.41;75.12;96394.59;1719101;82;21012;-73
2022/01/05 10:08:27;;;;;;;26.95;16.05;;;;;;;10.43;75.52;96395.37;1744332;82;21020;-76
2022/01/05 10:10:54;;;;;;;37.08;22.02;;;;;;;10.43;74.63;96400.68;1727161;82;20969;-75
2022/01/05 10:13:20;;;;;;;44.42;23.15;;;;;;;10.45;74.02;96399.73;1736051;81;21021;-73
2022/01/05 10:15:48;;;;;;;41.10;23.70;;;;;;;10.46;74.30;96400.98;1735227;82;21430;-74
2022/01/05 10:18:18;;;;;;;41.55;22.13;;;;;;;10.48;73.70;96397.80;1671107;84;21421;-72
2022/01/05 10:21:02;;;;;;;36.93;21.23;;;;;;;10.49;74.25;96395.53;1670090;85;21097;-72
2022/01/05 10:23:41;;;;;;;;;;;;;;;10.50;74.24;96390.61;1659535;87;21000;-72
2022/01/05 10:26:30;;;;;;;32.90;18.67;;;;;;;10.53;74.69;96388.26;1656543;87;20102;-73
2022/01/05 10:29:17;;;;;;;35.38;19.80;;;;;;;10.53;73.64;96390.91;1680664;84;21074;-72
2022/01/05 10:31:47;;;;;;;35.92;20.52;;;;;;;10.57;73.52;96381.86;1664382;84;21013;-72
2022/01/05 10:34:21;;;;;;;35.38;20.20;;;;;;;10.59;73.58;96374.66;1683203;84;21009;-72
2022/01/05 10:36:57;;;;;;;34.75;18.77;;;;;;;10.59;74.06;96378.64;1687227;84;21112;-71
2022/01/05 10:39:43;;;;;;;36.98;19.92;;;;;;;10.62;74.17;96381.59;1675998;84;22118;-72
2022/01/05 10:42:12;;;;;;;33.42;18.37;;;;;;;10.64;74.26;96371.31;1682057;84;21039;-72
2022/01/05 10:44:46;;;;;;;28.20;17.65;;;;;;;10.66;72.88;96377.37;1675562;84;21009;-74
2022/01/05 10:47:16;;;;;;;38.67;20.48;;;;;;;10.73;73.31;96375.69;1679949;84;21032;-72
2022/01/05 10:49:43;;;;;;;33.18;18.27;;;;;;;10.77;72.12;96371.47;1676435;84;21044;-74
2022/01/05 10:52:23;;;;;;;37.90;18.65;;;;;;;10.80;73.61;96367.30;1687231;84;20981;-74
2022/01/05 10:54:52;;;;;;;31.82;18.20;;;;;;;10.80;72.54;96377.91;1683506;84;21033;-74
2022/01/05 10:57:21;;;;;;;29.25;18.07;;;;;;;10.81;73.22;96369.50;1683658;84;20992;-74
2022/01/05 10:59:53;;;;;;;28.47;17.62;;;;;;;10.87;73.46;96363.00;1686849;84;21084;-74
2022/01/05 11:02:33;;;;;;;30.77;16.48;;;;;;;10.90;73.29;96366.33;1682434;83;21045;-74
2022/01/05 11:05:13;;;;;;;28.92;15.70;;;;;;;10.96;72.03;96369.94;1687524;84;21018;-74
2022/01/05 11:07:46;;;;;;;31.87;17.05;;;;;;;11.04;72.55;96355.41;1683300;84;21044;-74
2022/01/05 11:10:16;;;;;;;30.75;16.00;;;;;;;11.15;73.14;96354.77;1680635;84;21060;-74
2022/01/05 11:12:47;;;;;;;28.35;16.30;;;;;;;11.29;73.53;96355.30;1672662;84;21001;-74
2022/01/05 11:15:31;;;;;;;30.50;16.02;;;;;;;11.65;73.07;96348.73;1668153;86;21017;-74
2022/01/05 11:18:18;;;;;;;29.85;14.65;;;;;;;12.09;71.04;96344.30;1685098;84;21064;-74
2022/01/05 11:20:52;;;;;;;48.02;19.30;;;;;;;12.37;67.66;96341.24;1700344;84;21064;-71
2022/01/05 11:23:23;;;;;;;52.38;20.92;;;;;;;12.32;65.99;96339.82;1700208;84;21024;-71
2022/01/05 11:25:52;;;;;;;37.40;16.48;;;;;;;12.41;66.75;96338.78;1699915;84;21076;-71
2022/01/05 11:28:21;;;;;;;29.75;14.85;;;;;;;14.09;68.09;96331.28;1683778;84;21040;-72
2022/01/05 11:30:52;;;;;;;6.17;3.98;;;;;;;15.97;68.20;96321.97;1672331;86;21809;-71
2022/01/05 11:33:21;;;;;;;11.70;5.83;;;;;;;16.74;50.23;96314.96;1672200;86;21477;-71
2022/01/05 11:35:49;;;;;;;11.28;7.30;;;;;;;16.38;53.55;96307.62;1676434;84;21016;-72